createdAt,value
2018-08-28T00:01:14.506Z,14.87
2018-08-28T00:03:44.458Z,14.94
2018-08-28T00:06:14.112Z,14.92
2018-08-28T00:08:43.965Z,14.94
2018-08-28T00:11:13.738Z,14.96
2018-08-28T00:13:43.512Z,14.88
2018-08-28T00:16:13.518Z,14.90
2018-08-28T00:18:43.090Z,14.97
2018-08-28T00:21:12.749Z,14.84
2018-08-28T00:23:42.781Z,14.91
2018-08-28T00:26:12.594Z,14.87
2018-08-28T00:28:42.006Z,14.92
2018-08-28T00:31:11.854Z,14.89
2018-08-28T00:33:41.347Z,14.88
2018-08-28T00:36:10.886Z,14.85
2018-08-28T00:38:40.443Z,14.86
2018-08-28T00:58:31.169Z,14.69
2018-08-28T01:01:01.141Z,14.73
2018-08-28T01:03:30.907Z,14.78
2018-08-28T01:06:01.904Z,14.76
2018-08-28T01:08:31.601Z,14.83
2018-08-28T01:11:01.294Z,14.76
2018-08-28T01:30:52.460Z,14.77
2018-08-28T01:50:41.492Z,14.74
2018-08-28T01:53:11.238Z,14.73
2018-08-28T01:55:41.652Z,14.73
2018-08-28T01:58:11.458Z,14.63
2018-08-28T02:00:41.896Z,14.60
2018-08-28T02:03:11.643Z,14.61
2018-08-28T02:05:41.281Z,14.52
2018-08-28T02:08:11.216Z,14.52
2018-08-28T02:10:40.949Z,14.53
2018-08-28T02:13:11.093Z,14.44
2018-08-28T02:33:00.639Z,14.32
2018-08-28T02:35:30.269Z,14.24
2018-08-28T02:38:00.201Z,14.27
2018-08-28T02:40:30.506Z,14.31
2018-08-28T03:00:21.775Z,14.35
2018-08-28T03:02:53.662Z,14.40
2018-08-28T03:05:23.625Z,14.40
2018-08-28T03:07:53.548Z,14.37
2018-08-28T03:10:23.136Z,14.45
2018-08-28T03:12:52.488Z,14.52
2018-08-28T03:53:00.281Z,14.46
2018-08-28T03:55:30.210Z,14.42
2018-08-28T03:57:59.803Z,14.40
2018-08-28T04:00:29.532Z,14.40
2018-08-28T04:03:15.858Z,14.38
2018-08-28T04:23:06.261Z,14.50
2018-08-28T04:25:36.617Z,14.48
2018-08-28T04:28:06.194Z,14.51
2018-08-28T04:30:35.882Z,14.56
2018-08-28T04:33:05.653Z,14.56
2018-08-28T04:35:35.336Z,14.52
2018-08-28T04:55:27.625Z,14.63
2018-08-28T04:57:57.385Z,14.69
2018-08-28T05:00:27.120Z,14.80
2018-08-28T05:02:56.941Z,14.77
2018-08-28T05:05:26.425Z,14.82
2018-08-28T05:07:56.139Z,14.74
2018-08-28T05:10:26.059Z,14.71
2018-08-28T05:12:55.969Z,14.68
2018-08-28T05:15:25.585Z,14.67
2018-08-28T05:17:55.386Z,14.73
2018-08-28T05:20:24.805Z,14.79
2018-08-28T05:22:54.621Z,14.83
2018-08-28T05:25:24.516Z,14.92
2018-08-28T05:27:54.170Z,14.94
2018-08-28T05:30:24.164Z,14.84
2018-08-28T05:32:53.975Z,14.88
2018-08-28T05:35:23.898Z,14.90
2018-08-28T05:37:53.872Z,14.96
2018-08-28T05:40:23.730Z,15.04
2018-08-28T05:42:53.615Z,15.08
2018-08-28T05:45:23.656Z,15.14
2018-08-28T05:47:53.334Z,15.16
2018-08-28T05:50:23.190Z,15.14
2018-08-28T05:52:52.916Z,15.30
2018-08-28T05:55:22.636Z,15.34
2018-08-28T05:57:52.106Z,15.30
2018-08-28T06:00:21.709Z,15.33
2018-08-28T06:02:51.290Z,15.41
2018-08-28T06:05:21.235Z,15.51
2018-08-28T06:07:50.805Z,15.54
2018-08-28T06:10:20.379Z,15.61
2018-08-28T06:12:50.268Z,15.61
2018-08-28T06:15:20.049Z,15.70
2018-08-28T06:17:49.438Z,15.77
2018-08-28T06:20:19.318Z,15.70
2018-08-28T06:22:48.678Z,15.61
2018-08-28T06:25:18.260Z,15.65
2018-08-28T06:27:47.695Z,15.67
2018-08-28T06:30:17.100Z,15.73
2018-08-28T06:32:46.505Z,15.79
2018-08-28T06:35:16.383Z,15.87
2018-08-28T06:55:07.636Z,16.73
2018-08-28T06:57:38.347Z,16.75
2018-08-28T07:00:08.629Z,16.73
2018-08-28T07:02:39.730Z,16.73
2018-08-28T07:05:09.645Z,16.75
2018-08-28T07:07:39.530Z,16.76
2018-08-28T07:10:09.865Z,16.75
2018-08-28T07:12:39.649Z,16.54
2018-08-28T07:15:09.139Z,16.54
2018-08-28T07:17:39.160Z,16.51
2018-08-28T07:20:08.642Z,16.65
2018-08-28T07:22:38.261Z,16.60
2018-08-28T07:25:08.253Z,16.54
2018-08-28T07:27:37.971Z,16.60
2018-08-28T07:30:07.989Z,16.59
2018-08-28T07:32:38.062Z,16.61
2018-08-28T07:35:07.937Z,16.68
2018-08-28T07:37:37.650Z,16.72
2018-08-28T07:57:27.574Z,16.81
2018-08-28T07:59:57.329Z,16.81
2018-08-28T08:02:27.197Z,16.77
2018-08-28T08:04:57.029Z,16.85
2018-08-28T08:07:27.200Z,16.91
2018-08-28T08:09:56.849Z,17.02
2018-08-28T08:12:26.828Z,17.17
2018-08-28T08:14:56.229Z,17.23
2018-08-28T08:17:25.966Z,17.30
2018-08-28T08:37:16.820Z,17.49
2018-08-28T08:39:46.383Z,17.61
2018-08-28T08:42:16.477Z,17.79
2018-08-28T08:44:46.761Z,17.97
2018-08-28T08:47:16.442Z,17.86
2018-08-28T08:49:46.049Z,17.99
2018-08-28T08:52:16.223Z,18.04
2018-08-28T08:54:45.654Z,18.14
2018-08-28T08:57:15.260Z,18.14
2018-08-28T08:59:45.087Z,17.99
2018-08-28T09:02:14.714Z,18.03
2018-08-28T09:04:44.211Z,18.12
2018-08-28T09:07:14.591Z,18.46
2018-08-28T09:09:44.979Z,18.51
2018-08-28T09:12:14.679Z,18.54
2018-08-28T09:14:44.572Z,18.47
2018-08-28T09:17:14.392Z,18.52
2018-08-28T09:19:44.105Z,18.68
2018-08-28T09:22:15.195Z,18.68
2018-08-28T09:24:44.751Z,18.86
2018-08-28T09:27:14.511Z,19.14
2018-08-28T09:29:44.004Z,19.34
2018-08-28T09:32:13.399Z,19.05
2018-08-28T09:34:43.338Z,19.03
2018-08-28T09:37:13.544Z,18.91
2018-08-28T09:39:43.545Z,18.60
2018-08-28T09:42:13.615Z,18.56
2018-08-28T09:44:43.029Z,18.69
2018-08-28T09:47:12.666Z,18.88
2018-08-28T09:49:42.729Z,19.13
2018-08-28T09:52:12.215Z,19.11
2018-08-28T09:54:41.587Z,19.18
2018-08-28T09:57:11.742Z,19.18
2018-08-28T09:59:41.296Z,19.23
2018-08-28T10:02:11.161Z,19.45
2018-08-28T10:22:00.053Z,20.57
2018-08-28T10:24:29.722Z,20.57
2018-08-28T10:26:59.347Z,20.64
2018-08-28T10:29:29.053Z,20.80
2018-08-28T10:31:58.475Z,20.84
2018-08-28T10:34:28.335Z,21.11
2018-08-28T10:36:58.038Z,21.55
2018-08-28T10:39:27.487Z,21.98
2018-08-28T10:41:57.187Z,22.01
2018-08-28T10:44:26.692Z,21.88
2018-08-28T10:46:56.370Z,21.83
2018-08-28T10:49:25.819Z,21.68
2018-08-28T10:51:55.865Z,21.84
2018-08-28T10:54:25.561Z,22.12
2018-08-28T10:56:55.076Z,22.33
2018-08-28T10:59:24.807Z,22.47
2018-08-28T11:01:54.597Z,22.82
2018-08-28T11:04:24.129Z,22.88
2018-08-28T11:06:54.128Z,23.10
2018-08-28T11:09:23.518Z,23.30
2018-08-28T11:11:53.064Z,23.70
2018-08-28T11:14:22.938Z,24.00
2018-08-28T11:16:52.437Z,23.99
2018-08-28T11:19:21.826Z,24.10
2018-08-28T11:21:51.339Z,24.07
2018-08-28T11:24:20.857Z,24.32
2018-08-28T11:55:47.019Z,25.78
2018-08-28T11:58:16.850Z,25.74
2018-08-28T12:00:46.454Z,25.97
2018-08-28T12:03:16.547Z,25.71
2018-08-28T12:05:46.130Z,26.09
2018-08-28T12:08:16.265Z,26.53
2018-08-28T12:10:46.286Z,26.45
2018-08-28T12:13:16.511Z,26.72
2018-08-28T12:15:46.198Z,27.02
2018-08-28T12:18:16.253Z,27.27
2018-08-28T12:20:45.899Z,27.37
2018-08-28T12:23:15.565Z,27.21
2018-08-28T12:43:06.291Z,27.79
2018-08-28T13:02:57.517Z,28.17
2018-08-28T13:05:27.700Z,28.32
2018-08-28T13:25:19.700Z,28.84
2018-08-28T13:27:49.777Z,28.96
2018-08-28T13:30:19.519Z,28.88
2018-08-28T13:32:49.325Z,29.06
2018-08-28T13:35:19.171Z,29.15
2018-08-28T13:37:48.735Z,29.03
2018-08-28T13:40:18.621Z,28.97
2018-08-28T14:00:11.664Z,28.51
2018-08-28T14:02:41.317Z,28.52
2018-08-28T14:05:11.006Z,28.66
2018-08-28T14:07:41.441Z,28.51
2018-08-28T14:10:11.033Z,28.66
2018-08-28T14:12:40.723Z,28.43
2018-08-28T14:15:10.811Z,28.51
2018-08-28T14:17:40.342Z,28.31
2018-08-28T14:37:32.980Z,28.18
2018-08-28T14:40:03.039Z,28.45
2018-08-28T14:59:54.417Z,28.13
2018-08-28T15:02:24.266Z,28.42
2018-08-28T15:04:54.084Z,27.92
2018-08-28T15:07:24.192Z,27.98
2018-08-28T15:09:53.748Z,27.99
2018-08-28T15:12:23.376Z,27.87
2018-08-28T15:14:53.231Z,27.31
2018-08-28T15:17:22.965Z,27.31
2018-08-28T15:57:31.233Z,26.96
2018-08-28T16:00:01.420Z,26.36
2018-08-28T16:02:31.250Z,26.25
2018-08-28T16:05:01.319Z,26.29
2018-08-28T16:07:30.951Z,26.58
2018-08-28T16:10:00.854Z,26.49
2018-08-28T16:12:30.328Z,26.37
2018-08-28T16:15:00.448Z,26.03
2018-08-28T16:17:30.100Z,25.58
2018-08-28T16:20:00.008Z,25.54
2018-08-28T16:22:37.796Z,25.61
2018-08-28T16:25:07.420Z,25.45
2018-08-28T16:27:36.882Z,25.18
2018-08-28T16:47:28.559Z,23.07
2018-08-28T16:49:58.012Z,23.00
2018-08-28T16:52:27.426Z,23.00
2018-08-28T16:54:57.626Z,23.00
2018-08-28T16:57:27.425Z,22.94
2018-08-28T16:59:57.088Z,22.70
2018-08-28T17:02:26.615Z,22.86
2018-08-28T17:04:56.040Z,22.94
2018-08-28T17:07:25.812Z,22.77
2018-08-28T17:09:56.069Z,22.51
2018-08-28T17:12:25.937Z,22.31
2018-08-28T17:14:55.600Z,22.15
2018-08-28T17:17:25.906Z,22.08
2018-08-28T17:37:17.078Z,21.01
2018-08-28T17:39:47.223Z,21.04
2018-08-28T17:42:16.832Z,21.00
2018-08-28T17:44:46.459Z,20.80
2018-08-28T17:47:16.276Z,20.83
2018-08-28T17:49:45.865Z,20.59
2018-08-28T17:52:15.263Z,20.43
2018-08-28T17:54:45.114Z,20.21
2018-08-28T17:57:15.120Z,20.18
2018-08-28T18:17:07.571Z,19.79
2018-08-28T18:19:37.690Z,19.76
2018-08-28T18:22:07.542Z,19.85
2018-08-28T18:24:37.530Z,19.89
2018-08-28T18:27:07.101Z,19.80
2018-08-28T18:29:37.180Z,19.75
2018-08-28T18:49:28.270Z,19.30
2018-08-28T18:51:58.658Z,19.41
2018-08-28T18:54:28.459Z,19.33
2018-08-28T18:56:58.915Z,19.31
2018-08-28T18:59:29.143Z,19.25
2018-08-28T19:01:58.897Z,19.07
2018-08-28T19:04:28.767Z,18.90
2018-08-28T19:06:58.398Z,18.96
2018-08-28T19:09:28.250Z,18.87
2018-08-28T19:11:58.230Z,18.78
2018-08-28T19:14:28.415Z,18.78
2018-08-28T19:16:58.414Z,18.76
2018-08-28T19:19:28.523Z,18.70
2018-08-28T19:21:58.795Z,18.62
2018-08-28T19:24:28.735Z,18.67
2018-08-28T19:58:47.695Z,18.29
2018-08-28T20:01:18.065Z,18.24
2018-08-28T20:03:47.909Z,18.28
2018-08-28T20:06:17.838Z,18.23
2018-08-28T20:08:47.845Z,18.26
2018-08-28T20:11:17.634Z,18.27
2018-08-28T20:13:47.735Z,18.31
2018-08-28T20:16:17.784Z,18.24
2018-08-28T20:18:47.767Z,18.22
2018-08-28T20:21:17.592Z,18.15
2018-08-28T20:23:47.683Z,18.08
2018-08-28T20:26:17.721Z,17.98
2018-08-28T20:28:47.578Z,18.01
2018-08-28T20:31:17.490Z,17.92
2018-08-28T20:33:47.474Z,17.98
2018-08-28T20:36:17.496Z,17.97
2018-08-28T20:38:47.569Z,18.00
2018-08-28T20:41:17.357Z,17.85
2018-08-28T20:43:47.263Z,17.90
2018-08-28T20:46:17.370Z,17.96
2018-08-28T20:48:47.147Z,17.95
2018-08-28T20:51:16.950Z,17.85
2018-08-28T20:53:47.157Z,17.84
2018-08-28T20:56:16.873Z,17.82
2018-08-28T20:58:46.874Z,17.80
2018-08-28T21:01:16.757Z,17.88
2018-08-28T21:03:46.581Z,17.86
2018-08-28T21:06:16.196Z,17.90
2018-08-28T21:08:46.012Z,17.83
2018-08-28T21:11:15.790Z,17.89
2018-08-28T21:13:45.185Z,17.72
2018-08-28T21:16:15.076Z,17.74
2018-08-28T21:18:44.706Z,17.70
2018-08-28T21:21:14.844Z,17.77
2018-08-28T21:23:45.940Z,17.72
2018-08-28T21:26:15.561Z,17.74
2018-08-28T21:28:45.400Z,17.70
2018-08-28T21:31:15.661Z,17.69
2018-08-28T21:33:45.537Z,17.67
2018-08-28T21:36:15.122Z,17.60
2018-08-28T21:38:44.987Z,17.69
2018-08-28T21:41:15.147Z,17.65
2018-08-28T21:43:44.970Z,17.69
2018-08-28T21:46:15.086Z,17.63
2018-08-28T21:48:44.524Z,17.62
2018-08-28T21:51:14.106Z,17.54
2018-08-28T21:53:43.880Z,17.52
2018-08-28T21:56:13.647Z,17.55
2018-08-28T21:58:43.334Z,17.53
2018-08-28T22:01:13.818Z,17.52
2018-08-28T22:03:43.444Z,17.47
2018-08-28T22:06:19.441Z,17.48
2018-08-28T22:08:49.151Z,17.43
2018-08-28T22:11:19.164Z,17.42
2018-08-28T22:13:48.877Z,17.37
2018-08-28T22:16:18.710Z,17.33
2018-08-28T22:18:48.810Z,17.20
2018-08-28T22:21:18.654Z,17.23
2018-08-28T22:23:48.224Z,17.27
2018-08-28T22:26:18.392Z,17.31
2018-08-28T22:28:47.771Z,17.36
2018-08-28T22:31:18.267Z,17.31
2018-08-28T22:33:48.553Z,17.25
2018-08-28T22:36:18.324Z,17.23
2018-08-28T22:38:47.919Z,17.29
2018-08-28T22:41:18.083Z,17.27
2018-08-28T22:43:47.922Z,17.18
2018-08-28T22:46:17.493Z,17.17
2018-08-28T22:48:47.634Z,17.07
2018-08-28T22:51:17.130Z,17.09
2018-08-28T22:53:46.952Z,17.11
2018-08-28T22:56:16.966Z,17.07
2018-08-28T22:58:46.541Z,17.07
2018-08-28T23:01:16.444Z,17.03
2018-08-28T23:03:46.375Z,16.99
2018-08-28T23:06:16.042Z,17.00
2018-08-28T23:08:45.554Z,17.04
2018-08-28T23:11:15.780Z,17.01
2018-08-28T23:13:45.523Z,17.02
2018-08-28T23:16:15.237Z,16.97
2018-08-28T23:18:45.273Z,16.94
2018-08-28T23:21:15.722Z,16.90
2018-08-28T23:23:45.350Z,16.93
2018-08-28T23:26:15.161Z,16.91
2018-08-28T23:28:44.886Z,16.90
2018-08-28T23:31:14.313Z,16.86
2018-08-28T23:33:46.027Z,16.89
2018-08-28T23:36:15.760Z,16.90
2018-08-28T23:38:45.439Z,16.92
2018-08-28T23:41:15.254Z,16.89
2018-08-28T23:43:44.837Z,16.94
2018-08-28T23:46:14.862Z,16.91
2018-08-28T23:48:44.589Z,16.95
2018-08-28T23:51:14.264Z,16.96
2018-08-28T23:53:44.298Z,16.96
2018-08-28T23:56:13.675Z,16.88
2018-08-28T23:58:43.038Z,16.85
